Time;durP1;ratioP1;P1;durP2;ratioP2;P2;SDS_P1;SDS_P2;PMS_P1;PMS_P2;Temp;Humidity;BMP_temperature;BMP_pressure;BME280_temperature;BME280_humidity;BME280_pressure;Samples;Min_cycle;Max_cycle;Signal;HPM_P1;HPM_P2
2023/01/23 00:01:14;;;;;;;44.92;25.48;;;0.00;99.90;;;;;;6210059;23;20024;-86
2023/01/23 00:03:40;;;;;;;40.63;23.33;;;-0.10;99.90;;;;;;6210773;23;20000;-88
2023/01/23 00:06:09;;;;;;;38.58;22.92;;;-0.10;99.90;;;;;;6210710;23;20008;-87
2023/01/23 00:08:36;;;;;;;34.83;23.05;;;-0.20;99.90;;;;;;6211512;23;20007;-86
2023/01/23 00:11:05;;;;;;;40.70;23.48;;;-0.20;99.90;;;;;;6212100;23;20024;-86
2023/01/23 00:13:32;;;;;;;37.60;22.92;;;-0.10;99.90;;;;;;6211882;23;20028;-87
2023/01/23 00:15:57;;;;;;;42.75;23.55;;;-0.10;99.90;;;;;;6210532;23;20003;-87
2023/01/23 00:18:23;;;;;;;38.90;22.98;;;-0.10;99.90;;;;;;6210758;23;20108;-86
2023/01/23 00:20:48;;;;;;;39.30;22.67;;;0.00;99.90;;;;;;6210943;23;20039;-87
2023/01/23 00:23:14;;;;;;;41.00;23.73;;;0.00;99.90;;;;;;6210575;23;20496;-86
2023/01/23 00:25:40;;;;;;;36.65;22.55;;;0.00;99.90;;;;;;6210537;23;20011;-86
2023/01/23 00:28:05;;;;;;;35.90;23.00;;;0.00;99.90;;;;;;6211165;23;20338;-85
2023/01/23 00:30:32;;;;;;;39.28;23.35;;;-0.10;99.90;;;;;;6211354;23;20032;-86
2023/01/23 00:32:58;;;;;;;36.95;22.75;;;-0.10;99.90;;;;;;6210571;23;20340;-87
2023/01/23 00:35:23;;;;;;;41.38;21.92;;;0.00;99.90;;;;;;6210571;23;20032;-86
2023/01/23 00:37:49;;;;;;;40.45;22.13;;;0.00;99.90;;;;;;6210400;23;20457;-86
2023/01/23 00:40:14;;;;;;;37.63;22.58;;;0.00;99.90;;;;;;6210631;23;20080;-87
2023/01/23 00:42:40;;;;;;;38.28;22.33;;;0.00;99.90;;;;;;6209502;23;20008;-85
2023/01/23 00:45:06;;;;;;;39.70;22.38;;;0.00;99.90;;;;;;6211413;23;19997;-86
2023/01/23 00:47:32;;;;;;;36.65;21.52;;;0.00;99.90;;;;;;6211078;23;20004;-87
2023/01/23 00:49:58;;;;;;;39.65;23.25;;;0.00;99.90;;;;;;6183444;23;20319;-86
2023/01/23 00:52:25;;;;;;;36.70;21.10;;;0.00;99.90;;;;;;6183783;23;20008;-87
2023/01/23 00:54:51;;;;;;;39.63;22.13;;;0.00;99.90;;;;;;6183937;23;20088;-86
2023/01/23 00:57:16;;;;;;;38.65;22.25;;;0.00;99.90;;;;;;6210272;23;20032;-86
2023/01/23 00:59:42;;;;;;;36.08;21.35;;;0.00;99.90;;;;;;6210277;23;20024;-86
2023/01/23 01:02:07;;;;;;;37.40;22.38;;;0.00;99.90;;;;;;6211106;23;20008;-85
2023/01/23 01:04:33;;;;;;;36.65;22.30;;;0.00;99.90;;;;;;6211592;23;20066;-86
2023/01/23 01:06:59;;;;;;;39.53;22.38;;;-0.10;99.90;;;;;;6210456;23;20001;-87
2023/01/23 01:09:24;;;;;;;38.55;22.05;;;-0.10;99.90;;;;;;6210079;23;20005;-86
2023/01/23 01:11:50;;;;;;;36.42;21.20;;;-0.10;99.90;;;;;;6209636;23;20024;-86
2023/01/23 01:14:17;;;;;;;38.97;21.67;;;-0.10;99.90;;;;;;6210488;23;20363;-86
2023/01/23 01:16:45;;;;;;;37.35;22.05;;;-0.10;99.90;;;;;;6210297;23;20009;-87
2023/01/23 01:19:12;;;;;;;39.67;21.63;;;0.00;99.90;;;;;;6183796;23;20083;-86
2023/01/23 01:21:39;;;;;;;37.90;20.75;;;0.00;99.90;;;;;;6184731;23;20005;-86
2023/01/23 01:24:05;;;;;;;34.15;20.60;;;-0.10;99.90;;;;;;6211259;23;20337;-87
2023/01/23 01:26:31;;;;;;;37.63;21.63;;;-0.10;99.90;;;;;;6209572;23;19997;-86
2023/01/23 01:28:56;;;;;;;36.75;20.67;;;0.00;99.90;;;;;;6183722;23;20456;-87
2023/01/23 01:31:22;;;;;;;35.70;21.33;;;0.00;99.90;;;;;;6210186;23;20441;-87
2023/01/23 01:33:49;;;;;;;35.53;20.77;;;0.00;99.90;;;;;;6183796;23;20016;-88
2023/01/23 01:36:17;;;;;;;34.10;20.67;;;-0.10;99.90;;;;;;6210152;23;20004;-87
2023/01/23 01:38:43;;;;;;;34.33;21.13;;;0.00;99.90;;;;;;6210144;23;20004;-87
2023/01/23 01:41:11;;;;;;;35.08;20.75;;;0.00;99.90;;;;;;6210069;23;20003;-87
2023/01/23 01:43:37;;;;;;;34.25;19.77;;;0.00;99.90;;;;;;6211199;23;20005;-86
2023/01/23 01:46:22;;;;;;;33.47;20.23;;;0.00;99.90;;;;;;6210181;23;20004;-87
2023/01/23 01:49:19;;;;;;;33.13;19.85;;;0.00;99.90;;;;;;6183216;23;20095;-87
2023/01/23 01:51:50;;;;;;;30.37;18.87;;;0.00;99.90;;;;;;6174480;23;20012;-86
2023/01/23 01:54:27;;;;;;;29.50;18.13;;;0.00;99.90;;;;;;6209972;23;20020;-87
2023/01/23 01:57:12;;;;;;;33.15;18.55;;;0.00;99.90;;;;;;6183366;23;20032;-86
2023/01/23 01:59:44;;;;;;;29.10;18.63;;;0.10;99.90;;;;;;6210831;23;20005;-87
2023/01/23 02:02:24;;;;;;;29.98;17.88;;;0.10;99.90;;;;;;6211509;23;20075;-87
2023/01/23 02:04:56;;;;;;;31.55;18.30;;;0.00;99.90;;;;;;6210168;23;20000;-86
2023/01/23 02:07:57;;;;;;;30.15;17.77;;;0.00;99.90;;;;;;6209810;23;20051;-86
2023/01/23 02:10:23;;;;;;;32.33;17.83;;;0.00;99.90;;;;;;6202373;23;20005;-86
2023/01/23 02:12:50;;;;;;;30.75;17.58;;;0.00;99.90;;;;;;6209844;23;20020;-86
2023/01/23 02:15:18;;;;;;;29.10;17.85;;;0.00;99.90;;;;;;6183553;23;20005;-86
2023/01/23 02:17:46;;;;;;;30.58;17.25;;;0.00;99.90;;;;;;6210054;23;20013;-86
2023/01/23 02:20:16;;;;;;;27.88;17.30;;;0.10;99.90;;;;;;6211806;23;20314;-87
2023/01/23 02:23:16;;;;;;;27.80;17.33;;;0.10;99.90;;;;;;6211452;23;20032;-86
2023/01/23 02:25:42;;;;;;;27.42;17.65;;;0.10;99.90;;;;;;6211902;23;20385;-86
2023/01/23 02:28:12;;;;;;;28.23;16.83;;;0.10;99.90;;;;;;6212836;23;20120;-86
2023/01/23 02:30:39;;;;;;;40.75;19.65;;;0.20;99.90;;;;;;6212672;23;20012;-87
2023/01/23 02:33:21;;;;;;;27.45;16.95;;;0.20;99.90;;;;;;6211448;23;20001;-86
2023/01/23 02:35:47;;;;;;;26.38;16.67;;;0.20;99.90;;;;;;6211435;23;20007;-87
2023/01/23 02:38:13;;;;;;;28.30;16.63;;;0.10;99.90;;;;;;6185845;23;20008;-86
2023/01/23 02:40:41;;;;;;;29.10;16.90;;;0.00;99.90;;;;;;6212961;23;20380;-87
2023/01/23 02:43:12;;;;;;;28.93;17.33;;;0.00;99.90;;;;;;6211425;23;20001;-86
2023/01/23 02:45:38;;;;;;;26.38;17.02;;;0.00;99.90;;;;;;6186048;23;20085;-87
2023/01/23 02:48:06;;;;;;;27.50;16.75;;;-0.10;99.90;;;;;;6212021;23;20004;-87
2023/01/23 02:50:33;;;;;;;26.83;17.05;;;-0.10;99.90;;;;;;6185140;23;20005;-87
2023/01/23 02:52:59;;;;;;;29.65;16.67;;;-0.20;99.90;;;;;;6211289;23;20011;-88
2023/01/23 02:55:32;;;;;;;27.35;16.42;;;-0.20;99.90;;;;;;6184959;23;20004;-87
2023/01/23 03:00:42;;;;;;;29.05;18.00;;;-0.30;99.90;;;;;;6212383;23;20516;-86
2023/01/23 03:03:08;;;;;;;29.35;17.58;;;-0.30;99.90;;;;;;6211000;23;20028;-87
2023/01/23 03:05:34;;;;;;;30.35;17.67;;;-0.40;99.90;;;;;;6184689;23;20388;-86
2023/01/23 03:08:00;;;;;;;29.38;17.23;;;-0.40;99.90;;;;;;6184466;23;20388;-87
2023/01/23 03:10:27;;;;;;;28.88;18.05;;;-0.40;99.90;;;;;;6211462;23;20083;-87
2023/01/23 03:12:53;;;;;;;30.73;18.20;;;-0.40;99.90;;;;;;6210768;23;20043;-86
2023/01/23 03:15:19;;;;;;;28.48;17.30;;;-0.40;99.90;;;;;;6212028;23;20000;-87
2023/01/23 03:17:45;;;;;;;29.48;16.83;;;-0.40;99.90;;;;;;6185728;23;20027;-87
2023/01/23 03:20:11;;;;;;;28.05;17.42;;;-0.40;99.90;;;;;;6212629;23;20004;-87
2023/01/23 03:22:36;;;;;;;26.52;16.35;;;-0.40;99.90;;;;;;6210879;23;20004;-87
2023/01/23 03:25:02;;;;;;;28.08;16.88;;;-0.40;99.90;;;;;;6210553;23;20062;-86
2023/01/23 03:27:28;;;;;;;29.38;16.75;;;-0.30;99.90;;;;;;6211086;23;20012;-87
2023/01/23 03:30:12;;;;;;;25.73;16.42;;;-0.40;99.90;;;;;;6184588;23;20000;-87
2023/01/23 03:32:37;;;;;;;25.42;16.08;;;-0.40;99.90;;;;;;6211471;23;20001;-87
2023/01/23 03:35:05;;;;;;;25.90;16.38;;;-0.40;99.90;;;;;;6211193;23;20011;-86
2023/01/23 03:37:30;;;;;;;33.30;16.75;;;-0.50;99.90;;;;;;6210325;23;20008;-86
2023/01/23 03:42:40;;;;;;;29.05;16.92;;;-0.60;99.90;;;;;;6211073;23;20047;-86
2023/01/23 03:45:06;;;;;;;23.98;16.38;;;-0.60;99.90;;;;;;6211118;23;20241;-88
2023/01/23 03:47:32;;;;;;;24.90;16.05;;;-0.70;99.90;;;;;;6211159;23;20008;-88
2023/01/23 03:49:58;;;;;;;26.15;15.85;;;-0.60;99.90;;;;;;6211171;23;20342;-86
2023/01/23 03:52:24;;;;;;;26.33;15.38;;;-0.60;99.90;;;;;;6184290;23;20364;-86
2023/01/23 03:54:50;;;;;;;24.48;15.68;;;-0.70;99.90;;;;;;6210528;23;20001;-86
2023/01/23 03:57:15;;;;;;;26.30;16.15;;;-0.70;99.90;;;;;;6185715;23;20012;-86
2023/01/23 03:59:41;;;;;;;30.02;17.50;;;-0.70;99.90;;;;;;6184427;23;20384;-86
2023/01/23 04:02:07;;;;;;;26.05;16.70;;;-0.60;99.90;;;;;;6211048;23;20674;-87
2023/01/23 04:04:33;;;;;;;25.98;16.05;;;-0.60;99.90;;;;;;6210538;23;20028;-87
2023/01/23 04:07:00;;;;;;;27.42;16.30;;;-0.60;99.90;;;;;;6210726;23;20004;-87
2023/01/23 04:09:26;;;;;;;24.48;16.35;;;-0.60;99.90;;;;;;6210958;23;20078;-87
2023/01/23 04:11:57;;;;;;;27.42;17.05;;;-0.60;99.90;;;;;;6210903;23;20437;-86
2023/01/23 04:14:24;;;;;;;27.05;16.02;;;-0.60;99.90;;;;;;6210309;23;20009;-87
2023/01/23 04:16:50;;;;;;;29.02;16.63;;;-0.60;99.90;;;;;;6183480;23;20019;-86
2023/01/23 04:19:19;;;;;;;31.23;16.63;;;-0.60;99.90;;;;;;6211639;23;20008;-86
2023/01/23 04:21:47;;;;;;;24.48;15.88;;;-0.50;99.90;;;;;;6211260;23;20005;-86
2023/01/23 04:24:13;;;;;;;26.63;15.93;;;-0.50;99.90;;;;;;6210764;23;20015;-87
2023/01/23 04:26:39;;;;;;;24.85;15.60;;;-0.60;99.90;;;;;;6184264;23;20336;-87
2023/01/23 04:29:04;;;;;;;31.08;16.33;;;-0.60;99.90;;;;;;6184102;23;20036;-86
2023/01/23 04:31:30;;;;;;;23.33;15.48;;;-0.60;99.90;;;;;;6184099;23;20059;-87
2023/01/23 04:33:56;;;;;;;27.45;15.50;;;-0.60;99.90;;;;;;6183154;23;20079;-87
2023/01/23 04:36:22;;;;;;;27.35;15.85;;;-0.60;99.90;;;;;;6210606;23;20456;-86
2023/01/23 04:38:47;;;;;;;27.17;15.95;;;-0.60;99.90;;;;;;6211564;23;20002;-87
2023/01/23 04:41:22;;;;;;;27.98;16.58;;;-0.70;99.90;;;;;;6210299;23;20047;-87
2023/01/23 04:43:48;;;;;;;25.92;15.88;;;-0.60;99.90;;;;;;6211562;23;20004;-86
2023/01/23 04:46:13;;;;;;;26.50;15.65;;;-0.60;99.90;;;;;;6210660;23;20023;-87
2023/01/23 04:48:39;;;;;;;23.08;15.15;;;-0.60;99.90;;;;;;6209956;23;20593;-86
2023/01/23 04:51:05;;;;;;;26.75;16.15;;;-0.50;99.90;;;;;;6210770;23;20036;-85
2023/01/23 04:53:31;;;;;;;28.10;15.88;;;-0.50;99.90;;;;;;6183459;23;20009;-85
2023/01/23 04:55:56;;;;;;;27.58;16.23;;;-0.60;99.90;;;;;;6210566;23;20441;-86
2023/01/23 04:58:22;;;;;;;25.27;15.85;;;-0.60;99.90;;;;;;6184022;23;20454;-85
2023/01/23 05:00:48;;;;;;;27.20;16.30;;;-0.50;99.90;;;;;;6211790;23;20032;-87
2023/01/23 05:03:14;;;;;;;28.23;16.08;;;-0.40;99.90;;;;;;6183574;23;20052;-85
2023/01/23 05:05:42;;;;;;;27.98;16.70;;;-0.50;99.90;;;;;;6181841;23;20438;-87
2023/01/23 05:08:09;;;;;;;28.45;16.13;;;-0.40;99.90;;;;;;6210242;23;20012;-85
2023/01/23 05:10:35;;;;;;;29.00;16.60;;;-0.40;99.90;;;;;;6210318;23;20000;-85
2023/01/23 05:13:01;;;;;;;26.33;15.73;;;-0.50;99.90;;;;;;6210304;23;20004;-85
2023/01/23 05:15:27;;;;;;;25.90;15.65;;;-0.40;99.90;;;;;;6209763;23;20001;-87
2023/01/23 05:17:52;;;;;;;25.85;15.63;;;-0.40;99.90;;;;;;6207673;23;20016;-87
2023/01/23 05:20:19;;;;;;;28.30;15.80;;;-0.40;99.90;;;;;;6208782;23;19996;-85
2023/01/23 05:22:53;;;;;;;28.10;15.52;;;-0.40;99.90;;;;;;6207913;23;20130;-85
2023/01/23 05:25:25;;;;;;;24.15;15.23;;;-0.40;99.90;;;;;;6174610;23;20009;-86
2023/01/23 05:27:51;;;;;;;30.95;16.38;;;-0.40;99.90;;;;;;6170880;23;20001;-85
2023/01/23 05:30:20;;;;;;;27.42;15.80;;;-0.40;99.90;;;;;;6174142;23;20371;-85
2023/01/23 05:32:45;;;;;;;29.88;16.27;;;-0.40;99.90;;;;;;6174268;23;20020;-84
2023/01/23 05:35:11;;;;;;;24.33;15.63;;;-0.40;99.90;;;;;;6174221;23;20028;-86
2023/01/23 05:37:37;;;;;;;28.60;15.75;;;-0.30;99.90;;;;;;6176740;23;20036;-85
2023/01/23 05:40:05;;;;;;;28.45;15.88;;;-0.30;99.90;;;;;;6173654;23;20040;-87
2023/01/23 05:42:31;;;;;;;27.60;16.00;;;-0.40;99.90;;;;;;6174827;23;20005;-85
2023/01/23 05:44:56;;;;;;;24.52;15.52;;;-0.40;99.90;;;;;;6174717;23;20389;-85
2023/01/23 05:47:22;;;;;;;29.00;16.02;;;-0.40;99.90;;;;;;6175539;23;20009;-84
2023/01/23 05:49:48;;;;;;;28.30;16.83;;;-0.40;99.90;;;;;;6175819;23;20346;-85
2023/01/23 05:52:13;;;;;;;30.73;15.85;;;-0.30;99.90;;;;;;6173266;23;20037;-85
2023/01/23 05:54:39;;;;;;;27.67;15.63;;;-0.30;99.90;;;;;;6177536;23;20434;-86
2023/01/23 05:57:04;;;;;;;28.02;15.75;;;-0.30;99.90;;;;;;6177448;23;20458;-85
2023/01/23 05:59:30;;;;;;;29.02;16.60;;;-0.30;99.90;;;;;;6181837;23;20005;-84
2023/01/23 06:01:55;;;;;;;34.55;17.40;;;-0.20;99.90;;;;;;6182213;23;19997;-84
2023/01/23 06:04:21;;;;;;;29.75;17.05;;;-0.20;99.90;;;;;;6183323;23;20005;-83
2023/01/23 06:06:47;;;;;;;31.17;17.30;;;-0.10;99.90;;;;;;6182112;23;20008;-84
2023/01/23 06:09:12;;;;;;;24.88;15.70;;;-0.10;99.90;;;;;;6181607;23;20315;-84
2023/01/23 06:11:38;;;;;;;26.85;16.38;;;-0.10;99.90;;;;;;6182134;23;20001;-83
2023/01/23 06:14:04;;;;;;;26.90;15.93;;;-0.10;99.90;;;;;;6182164;23;20028;-84
2023/01/23 06:16:29;;;;;;;27.50;16.10;;;0.00;99.90;;;;;;6181904;23;20103;-83
2023/01/23 06:18:55;;;;;;;28.23;15.95;;;0.00;99.90;;;;;;6181870;23;20015;-84
2023/01/23 06:21:20;;;;;;;22.98;16.17;;;0.00;99.90;;;;;;6183173;23;20005;-83
2023/01/23 06:23:46;;;;;;;26.13;16.25;;;0.00;99.90;;;;;;6186939;23;20010;-83
2023/01/23 06:26:12;;;;;;;24.67;16.05;;;0.00;99.90;;;;;;6184938;23;20005;-84
2023/01/23 06:28:38;;;;;;;27.38;17.08;;;0.10;99.90;;;;;;6211415;23;20385;-83
2023/01/23 06:31:05;;;;;;;25.55;16.30;;;0.00;99.90;;;;;;6211926;23;20004;-86
2023/01/23 06:33:31;;;;;;;27.35;16.77;;;0.00;99.90;;;;;;6210735;23;20463;-84
2023/01/23 06:35:58;;;;;;;27.20;16.20;;;0.00;99.90;;;;;;6211704;23;20000;-84
2023/01/23 06:38:24;;;;;;;26.05;16.25;;;0.00;99.90;;;;;;6185908;23;20451;-84
2023/01/23 06:40:50;;;;;;;29.67;17.38;;;0.00;99.90;;;;;;6212393;23;20013;-84
2023/01/23 06:43:15;;;;;;;30.60;17.63;;;0.00;99.90;;;;;;6211978;23;20456;-84
2023/01/23 06:45:45;;;;;;;34.33;16.85;;;-0.10;99.90;;;;;;6211734;23;20001;-84
2023/01/23 06:48:11;;;;;;;30.10;17.30;;;0.00;99.90;;;;;;6211659;23;20000;-84
2023/01/23 06:50:38;;;;;;;28.92;17.50;;;0.00;99.90;;;;;;6211111;23;20001;-85
2023/01/23 06:53:04;;;;;;;27.63;16.42;;;0.00;99.90;;;;;;6211732;23;20008;-84
2023/01/23 06:55:30;;;;;;;30.17;17.35;;;0.00;99.90;;;;;;6211410;23;20004;-84
2023/01/23 06:57:56;;;;;;;29.58;16.58;;;0.00;99.90;;;;;;6211050;23;20012;-85
2023/01/23 07:00:22;;;;;;;26.70;17.42;;;0.00;99.90;;;;;;6186413;23;20326;-84
2023/01/23 07:02:47;;;;;;;28.85;16.00;;;0.00;99.90;;;;;;6211516;23;20455;-84
2023/01/23 07:05:13;;;;;;;26.10;16.55;;;-0.10;99.90;;;;;;6211388;23;20334;-84
2023/01/23 07:07:39;;;;;;;24.35;16.35;;;-0.10;99.90;;;;;;6184885;23;20058;-84
2023/01/23 07:10:05;;;;;;;28.25;16.65;;;-0.20;99.90;;;;;;6184446;23;20079;-83
2023/01/23 07:12:31;;;;;;;26.40;16.38;;;-0.30;99.90;;;;;;6211420;23;20058;-85
2023/01/23 07:14:57;;;;;;;32.60;16.92;;;-0.30;99.90;;;;;;6212542;23;20072;-84
2023/01/23 07:17:22;;;;;;;31.10;18.30;;;-0.30;99.90;;;;;;6212552;23;20323;-90
2023/01/23 07:19:48;;;;;;;26.77;17.58;;;-0.40;99.90;;;;;;6184966;23;20001;-88
2023/01/23 07:22:18;;;;;;;29.75;18.73;;;-0.30;99.90;;;;;;6211392;23;20055;-86
2023/01/23 07:24:44;;;;;;;34.75;19.80;;;-0.30;99.90;;;;;;6211380;23;20067;-86
2023/01/23 07:27:09;;;;;;;32.72;19.17;;;-0.30;99.90;;;;;;6211464;23;20013;-86
2023/01/23 07:29:35;;;;;;;25.92;16.42;;;-0.40;99.90;;;;;;6211066;23;20008;-86
2023/01/23 07:32:00;;;;;;;23.88;16.55;;;-0.40;99.90;;;;;;6210944;23;20001;-86
2023/01/23 07:34:26;;;;;;;28.52;16.35;;;-0.50;99.90;;;;;;6211733;23;20429;-84
2023/01/23 07:36:52;;;;;;;26.20;16.38;;;-0.50;99.90;;;;;;6209753;23;20009;-87
2023/01/23 07:39:18;;;;;;;28.25;15.45;;;-0.60;99.90;;;;;;6183252;23;20099;-84
2023/01/23 07:41:43;;;;;;;28.42;16.50;;;-0.70;99.90;;;;;;6210633;23;20307;-87
2023/01/23 07:44:16;;;;;;;29.25;17.08;;;-0.70;99.90;;;;;;6211372;23;20049;-87
2023/01/23 07:46:42;;;;;;;27.45;16.83;;;-0.60;99.90;;;;;;6184175;23;20091;-89
2023/01/23 07:49:08;;;;;;;28.15;17.13;;;-0.60;99.90;;;;;;6183884;23;20004;-88
2023/01/23 07:51:34;;;;;;;29.23;17.25;;;-0.70;99.90;;;;;;6212268;23;20344;-87
2023/01/23 07:54:00;;;;;;;33.53;18.25;;;-0.70;99.90;;;;;;6186146;23;20337;-90
2023/01/23 07:56:25;;;;;;;35.67;21.70;;;-0.70;99.90;;;;;;6215514;23;20083;-88
2023/01/23 07:58:51;;;;;;;34.58;20.02;;;-0.80;99.90;;;;;;6211444;23;20004;-86
2023/01/23 08:01:18;;;;;;;30.15;18.52;;;-0.80;99.90;;;;;;6184549;23;20091;-85
2023/01/23 08:03:46;;;;;;;33.67;18.67;;;-0.80;99.90;;;;;;6183146;23;20027;-86
2023/01/23 08:06:12;;;;;;;;;;;-0.80;99.90;;;;;;6184713;23;20012;-87
2023/01/23 08:08:38;;;;;;;36.38;20.13;;;-0.80;99.90;;;;;;6210555;23;19900;-88
2023/01/23 08:11:05;;;;;;;31.23;18.80;;;-0.90;99.90;;;;;;6211218;23;20337;-89
2023/01/23 08:13:31;;;;;;;34.90;20.35;;;-0.90;99.90;;;;;;6211049;23;20027;-86
2023/01/23 08:15:58;;;;;;;33.15;19.48;;;-0.90;99.90;;;;;;6211732;23;20031;-86
2023/01/23 08:18:24;;;;;;;31.50;18.40;;;-0.80;99.90;;;;;;6210358;23;20008;-88
2023/01/23 08:20:54;;;;;;;31.90;17.92;;;-0.80;99.90;;;;;;6211071;23;20255;-89
2023/01/23 08:23:22;;;;;;;25.63;15.85;;;-0.80;99.90;;;;;;6210949;23;20015;-87
2023/01/23 08:25:52;;;;;;;26.90;16.92;;;-0.70;99.90;;;;;;6211360;23;20029;-88
2023/01/23 08:28:18;;;;;;;32.90;18.23;;;-0.70;99.90;;;;;;6211485;23;20000;-89
2023/01/23 08:30:43;;;;;;;30.90;15.50;;;-0.60;99.90;;;;;;6184485;23;20051;-90
2023/01/23 08:33:09;;;;;;;23.65;15.43;;;-0.50;99.90;;;;;;6211175;23;20005;-89
2023/01/23 08:35:34;;;;;;;25.80;15.50;;;-0.60;99.90;;;;;;6184494;23;20333;-89
2023/01/23 08:38:01;;;;;;;31.05;16.35;;;-0.40;99.90;;;;;;6211889;23;20015;-89
2023/01/23 08:40:27;;;;;;;24.85;16.08;;;-0.30;99.90;;;;;;6212638;23;19997;-89
2023/01/23 08:42:52;;;;;;;36.80;15.80;;;-0.30;99.90;;;;;;6211285;23;20016;-91
2023/01/23 08:45:18;;;;;;;27.48;16.98;;;-0.20;99.90;;;;;;6185178;23;20032;-90
2023/01/23 08:47:44;;;;;;;28.48;15.95;;;-0.20;99.90;;;;;;6210548;23;20001;-88
2023/01/23 08:50:10;;;;;;;30.48;17.05;;;-0.10;99.90;;;;;;6210814;23;20000;-87
2023/01/23 08:52:36;;;;;;;27.92;17.25;;;-0.20;99.90;;;;;;6184972;23;20117;-89
2023/01/23 08:55:02;;;;;;;29.92;16.15;;;-0.10;99.90;;;;;;6212523;23;20031;-89
2023/01/23 08:57:28;;;;;;;24.40;15.80;;;0.00;99.90;;;;;;6184457;23;20386;-90
2023/01/23 08:59:53;;;;;;;31.60;16.00;;;0.00;99.90;;;;;;6210546;23;20507;-89
2023/01/23 09:02:20;;;;;;;27.38;16.85;;;0.10;99.90;;;;;;6184603;23;20480;-88
2023/01/23 09:04:46;;;;;;;24.25;15.55;;;0.10;99.90;;;;;;6214937;23;19996;-89
2023/01/23 09:07:16;;;;;;;27.00;15.82;;;0.30;99.90;;;;;;6200280;23;20032;-91
2023/01/23 09:09:41;;;;;;;28.45;15.02;;;0.30;99.90;;;;;;6221750;23;20337;-87
2023/01/23 09:12:14;;;;;;;32.47;17.08;;;0.20;99.90;;;;;;6224174;23;20057;-87
2023/01/23 09:14:53;;;;;;;23.58;15.50;;;0.20;99.90;;;;;;6235932;23;20000;-87
2023/01/23 09:17:22;;;;;;;23.88;15.32;;;0.30;99.90;;;;;;6234811;23;20005;-87
2023/01/23 09:20:00;;;;;;;25.20;15.20;;;0.40;99.90;;;;;;6229442;23;20013;-86
2023/01/23 09:22:28;;;;;;;30.92;16.20;;;0.40;99.90;;;;;;6202052;23;20031;-86
2023/01/23 09:24:57;;;;;;;26.33;15.75;;;0.50;99.90;;;;;;6227930;23;20103;-86
2023/01/23 09:27:46;;;;;;;23.20;14.45;;;0.50;99.90;;;;;;6227126;23;20214;-86
2023/01/23 09:30:14;;;;;;;28.60;16.55;;;0.60;99.90;;;;;;6135535;23;20447;-86
2023/01/23 09:32:54;;;;;;;27.88;15.45;;;0.70;99.90;;;;;;6111777;23;20033;-87
2023/01/23 09:35:32;;;;;;;23.73;15.88;;;0.80;99.90;;;;;;6136260;23;20012;-87
2023/01/23 09:38:20;;;;;;;26.85;15.68;;;0.80;99.90;;;;;;6134730;23;20018;-87
2023/01/23 09:40:56;;;;;;;26.30;15.68;;;1.00;99.90;;;;;;6101575;23;20026;-87
2023/01/23 09:44:21;;;;;;;29.08;15.60;;;1.00;99.90;;;;;;6043459;23;20007;-87
2023/01/23 09:46:52;;;;;;;24.33;14.85;;;1.10;99.90;;;;;;5964513;23;20016;-88
2023/01/23 09:49:20;;;;;;;25.90;15.73;;;1.30;99.90;;;;;;6040480;23;20011;-87
2023/01/23 09:51:49;;;;;;;25.15;15.13;;;1.30;99.90;;;;;;6040469;23;20353;-86
2023/01/23 09:54:47;;;;;;;22.88;14.68;;;1.40;99.90;;;;;;6016722;23;19999;-88
2023/01/23 09:57:17;;;;;;;23.17;14.52;;;1.40;99.90;;;;;;6038158;23;20014;-87
2023/01/23 09:59:55;;;;;;;27.38;16.25;;;1.30;99.90;;;;;;6038901;23;20461;-89
2023/01/23 10:02:23;;;;;;;20.17;14.13;;;1.40;99.90;;;;;;6014787;23;20018;-86
2023/01/23 10:04:51;;;;;;;24.05;15.02;;;1.50;99.90;;;;;;6038798;23;20023;-87
2023/01/23 10:07:25;;;;;;;25.25;15.80;;;1.50;99.90;;;;;;6008699;23;20011;-90
2023/01/23 10:10:17;;;;;;;23.95;15.90;;;1.50;99.90;;;;;;6037033;23;20060;-88
2023/01/23 10:12:48;;;;;;;23.95;16.20;;;1.60;99.90;;;;;;6065009;23;20015;-87
2023/01/23 10:15:28;;;;;;;25.98;16.33;;;1.60;99.90;;;;;;6064149;23;20091;-91
2023/01/23 10:18:02;;;;;;;27.60;16.33;;;1.60;99.90;;;;;;6062315;23;20069;-89
2023/01/23 10:20:54;;;;;;;24.10;16.30;;;1.70;99.90;;;;;;6105352;23;20006;-89
2023/01/23 10:23:34;;;;;;;24.20;15.82;;;1.70;99.90;;;;;;6148878;23;20002;-92
2023/01/23 10:26:02;;;;;;;23.33;15.73;;;1.80;99.90;;;;;;6150166;23;20013;-89
2023/01/23 10:28:37;;;;;;;24.13;15.65;;;1.90;99.90;;;;;;6152050;23;20089;-89
2023/01/23 10:31:27;;;;;;;26.80;16.73;;;1.90;99.90;;;;;;6152062;23;20008;-90
2023/01/23 10:34:07;;;;;;;23.60;16.48;;;1.90;99.90;;;;;;6180046;23;20008;-88
2023/01/23 10:36:46;;;;;;;22.15;15.57;;;2.00;99.90;;;;;;6215963;23;19997;-87
2023/01/23 10:39:25;;;;;;;26.40;16.75;;;2.00;99.90;;;;;;6216500;23;20009;-90
2023/01/23 10:41:51;;;;;;;22.33;16.25;;;2.30;99.90;;;;;;6194534;23;20314;-91
2023/01/23 10:44:18;;;;;;;26.20;16.27;;;2.50;99.90;;;;;;6219203;23;20122;-89
2023/01/23 10:46:55;;;;;;;26.42;16.25;;;2.40;99.90;;;;;;6231395;23;20007;-87
2023/01/23 10:49:36;;;;;;;23.85;16.65;;;2.40;99.90;;;;;;6223282;23;20005;-89
2023/01/23 10:52:03;;;;;;;26.63;16.70;;;2.40;99.90;;;;;;6218035;23;20001;-91
2023/01/23 10:54:29;;;;;;;22.02;14.65;;;2.40;99.90;;;;;;6216929;23;20008;-93
2023/01/23 10:57:16;;;;;;;22.33;16.10;;;2.50;99.90;;;;;;6188014;23;20019;-87
2023/01/23 11:00:07;;;;;;;24.50;15.63;;;2.50;99.90;;;;;;6167667;23;20007;-87
2023/01/23 11:02:39;;;;;;;24.63;15.70;;;2.50;99.90;;;;;;6217629;23;20001;-91
2023/01/23 11:05:36;;;;;;;22.98;16.00;;;3.10;99.90;;;;;;6196012;23;20464;-90
2023/01/23 11:08:02;;;;;;;22.45;15.07;;;2.60;99.90;;;;;;6216676;23;20008;-89
2023/01/23 11:10:28;;;;;;;20.52;15.15;;;2.60;99.90;;;;;;6218719;23;20064;-88
2023/01/23 11:12:54;;;;;;;21.90;15.05;;;2.50;99.90;;;;;;6217533;23;20001;-91
2023/01/23 11:15:31;;;;;;;23.20;16.25;;;2.50;99.90;;;;;;6189523;23;20318;-92
2023/01/23 11:18:01;;;;;;;24.75;16.25;;;2.30;99.90;;;;;;6214229;23;20008;-91
2023/01/23 11:20:44;;;;;;;21.45;14.30;;;2.60;99.90;;;;;;6196064;23;20004;-92
2023/01/23 11:23:17;;;;;;;22.85;14.88;;;2.60;99.90;;;;;;6203250;23;20053;-89
2023/01/23 11:25:51;;;;;;;23.92;15.63;;;2.70;99.90;;;;;;6234774;23;20004;-94
2023/01/23 11:28:26;;;;;;;20.63;15.13;;;2.90;99.90;;;;;;6228498;23;20020;-91
2023/01/23 11:30:51;;;;;;;22.77;14.13;;;3.00;99.90;;;;;;6202032;23;20027;-93
2023/01/23 11:33:51;;;;;;;18.80;12.73;;;2.90;99.90;;;;;;6227326;23;20008;-88
2023/01/23 11:36:40;;;;;;;26.17;14.88;;;3.00;99.90;;;;;;6234324;23;20000;-89
2023/01/23 11:39:24;;;;;;;26.25;14.82;;;3.00;99.90;;;;;;6237238;23;20013;-87
2023/01/23 11:42:48;;;;;;;23.90;14.73;;;3.00;99.90;;;;;;6241090;23;20004;-90
2023/01/23 11:49:35;;;;;;;20.27;14.25;;;3.00;99.90;;;;;;6123677;23;20006;-88
2023/01/23 11:52:42;;;;;;;20.60;13.73;;;3.00;99.90;;;;;;6032827;23;19998;-87
2023/01/23 11:55:22;;;;;;;18.90;13.13;;;3.10;99.90;;;;;;6094807;23;19994;-88
2023/01/23 11:58:17;;;;;;;20.88;13.68;;;3.10;99.90;;;;;;6119831;23;20010;-88
2023/01/23 12:01:24;;;;;;;23.40;14.40;;;3.10;99.90;;;;;;6119641;23;20011;-87
2023/01/23 12:04:06;;;;;;;20.60;13.30;;;3.40;99.90;;;;;;6093202;23;19994;-87
2023/01/23 12:06:58;;;;;;;19.38;13.18;;;3.10;99.90;;;;;;6093593;23;20036;-88
2023/01/23 12:10:12;;;;;;;18.80;12.82;;;3.20;99.90;;;;;;6118734;23;19990;-88
2023/01/23 12:12:54;;;;;;;18.42;12.77;;;3.20;99.90;;;;;;6115972;23;20010;-89
2023/01/23 12:15:36;;;;;;;19.63;13.30;;;3.10;99.90;;;;;;6130633;23;20025;-87
2023/01/23 12:18:32;;;;;;;18.85;12.05;;;3.20;99.90;;;;;;6184390;23;20017;-87
2023/01/23 12:21:21;;;;;;;17.92;12.98;;;3.20;99.90;;;;;;6236114;23;20003;-88
2023/01/23 12:24:49;;;;;;;20.65;13.55;;;3.30;99.90;;;;;;6184353;23;20081;-90
2023/01/23 12:27:26;;;;;;;18.23;12.90;;;3.20;99.90;;;;;;6161770;23;19997;-88
2023/01/23 12:30:37;;;;;;;21.00;13.25;;;3.20;99.90;;;;;;6209681;23;19997;-89
2023/01/23 12:33:44;;;;;;;19.50;12.88;;;3.30;99.90;;;;;;6211482;23;20017;-89
2023/01/23 12:36:29;;;;;;;19.47;12.87;;;3.30;99.90;;;;;;6208382;23;19989;-90
2023/01/23 12:39:23;;;;;;;20.77;12.55;;;3.30;99.90;;;;;;6200511;23;20028;-88
2023/01/23 12:41:58;;;;;;;18.08;12.50;;;3.30;99.90;;;;;;6201139;23;20330;-90
2023/01/23 12:44:36;;;;;;;17.73;12.52;;;3.70;99.90;;;;;;6199747;23;20005;-89
2023/01/23 12:48:03;;;;;;;20.00;12.48;;;3.60;99.90;;;;;;6199493;23;20004;-90
2023/01/23 12:50:44;;;;;;;17.90;12.35;;;3.40;99.90;;;;;;6195915;23;20065;-90
2023/01/23 12:53:19;;;;;;;18.13;11.95;;;3.40;99.90;;;;;;6192995;23;20025;-89
2023/01/23 12:56:24;;;;;;;22.77;13.73;;;3.50;99.90;;;;;;6202119;23;20025;-88
2023/01/23 12:59:15;;;;;;;18.80;13.38;;;3.40;99.90;;;;;;6196859;23;20017;-88
2023/01/23 13:02:16;;;;;;;18.02;12.77;;;3.40;99.90;;;;;;6196382;23;20005;-88
2023/01/23 13:05:53;;;;;;;;;;;;;;;;;;;;;